HAL41 KLAX-PHNL
Flight info
| Callsign | HAL41 |
|---|---|
| Flight time | N/A |
| Altitude | 40000 |
| Route | SUMMR2 DINTY DUETS 3335N12855W DADIE R576 DENNS MAGGI3 |
| Aircraft | A359/H-SDE2E3GHIJ3J4J5LM1ORWXY/LB1D1 |
Departure
| Time | 2026-04-23 10:09 |
|---|---|
| Airport | Los Angeles International Airport (KLAX) |
Arrival
| Time | N/A |
|---|---|
| Airport | Daniel K. Inouye International Airport (PHNL) |
| Time | Latitude | Longitude | Altitude | Speed | Heading |
|---|---|---|---|---|---|
| 2026-04-23 09:39 | 33.94483 | -118.41599 | 102 ft | 0 kts | 83° |
| 2026-04-23 09:58 | 33.94481 | -118.41618 | 101 ft | 4 kts | 83° |
| 2026-04-23 09:58 | 33.94479 | -118.41644 | 101 ft | 4 kts | 78° |
| 2026-04-23 09:59 | 33.94470 | -118.41672 | 99 ft | 4 kts | 50° |
| 2026-04-23 09:59 | 33.94450 | -118.41689 | 100 ft | 4 kts | 2° |
| 2026-04-23 09:59 | 33.94425 | -118.41687 | 99 ft | 4 kts | 353° |
| 2026-04-23 09:59 | 33.94410 | -118.41685 | 101 ft | 0 kts | 353° |
| 2026-04-23 10:03 | 33.94469 | -118.41693 | 101 ft | 23 kts | 353° |
| 2026-04-23 10:03 | 33.94583 | -118.41708 | 101 ft | 16 kts | 354° |
| 2026-04-23 10:04 | 33.94651 | -118.41636 | 101 ft | 14 kts | 71° |
| 2026-04-23 10:04 | 33.94670 | -118.41517 | 102 ft | 15 kts | 80° |
| 2026-04-23 10:04 | 33.94687 | -118.41384 | 102 ft | 16 kts | 88° |
| 2026-04-23 10:04 | 33.94701 | -118.41243 | 101 ft | 17 kts | 76° |
| 2026-04-23 10:05 | 33.94729 | -118.41096 | 102 ft | 18 kts | 82° |
| 2026-04-23 10:05 | 33.94745 | -118.40939 | 100 ft | 20 kts | 83° |
| 2026-04-23 10:05 | 33.94761 | -118.40772 | 102 ft | 21 kts | 83° |
| 2026-04-23 10:05 | 33.94782 | -118.40583 | 102 ft | 23 kts | 83° |
| 2026-04-23 10:06 | 33.94801 | -118.40391 | 102 ft | 23 kts | 82° |
| 2026-04-23 10:06 | 33.94855 | -118.40280 | 103 ft | 11 kts | 27° |
| 2026-04-23 10:06 | 33.94905 | -118.40214 | 104 ft | 11 kts | 56° |
| 2026-04-23 10:06 | 33.94930 | -118.40185 | 102 ft | 0 kts | 32° |
| 2026-04-23 10:07 | 33.94947 | -118.40179 | 102 ft | 11 kts | 11° |
| 2026-04-23 10:07 | 33.95003 | -118.40223 | 106 ft | 8 kts | 293° |
| 2026-04-23 10:08 | 33.95007 | -118.40295 | 105 ft | 9 kts | 269° |
| 2026-04-23 10:08 | 33.94994 | -118.40418 | 103 ft | 38 kts | 262° |
| 2026-04-23 10:08 | 33.94921 | -118.41139 | 104 ft | 132 kts | 263° |
| 2026-04-23 10:09 | 33.94585 | -118.44199 | 1197 ft | 214 kts | 263° |
| 2026-04-23 10:09 | 33.94398 | -118.46129 | 2126 ft | 242 kts | 264° |
| 2026-04-23 10:09 | 33.94242 | -118.48219 | 2664 ft | 260 kts | 267° |
| 2026-04-23 10:09 | 33.94192 | -118.50384 | 3472 ft | 261 kts | 269° |
| 2026-04-23 10:10 | 33.94111 | -118.52568 | 4314 ft | 261 kts | 264° |
| 2026-04-23 10:10 | 33.93934 | -118.54750 | 4869 ft | 262 kts | 266° |
| 2026-04-23 10:10 | 33.93771 | -118.56943 | 5395 ft | 263 kts | 266° |
| 2026-04-23 10:10 | 33.93598 | -118.59150 | 6160 ft | 266 kts | 265° |
| 2026-04-23 10:11 | 33.93417 | -118.61372 | 7022 ft | 268 kts | 265° |
| 2026-04-23 10:11 | 33.93227 | -118.63618 | 7877 ft | 270 kts | 265° |
| 2026-04-23 10:11 | 33.93039 | -118.65885 | 8723 ft | 274 kts | 266° |
| 2026-04-23 10:11 | 33.92866 | -118.68181 | 9555 ft | 277 kts | 266° |
| 2026-04-23 10:12 | 33.92691 | -118.70500 | 10354 ft | 281 kts | 266° |
| 2026-04-23 10:12 | 33.92507 | -118.72916 | 10796 ft | 299 kts | 266° |
| 2026-04-23 10:12 | 33.92312 | -118.75457 | 11158 ft | 317 kts | 266° |
| 2026-04-23 10:12 | 33.92102 | -118.78164 | 11515 ft | 333 kts | 266° |
| 2026-04-23 10:13 | 33.91879 | -118.80999 | 11875 ft | 345 kts | 266° |
| 2026-04-23 10:13 | 33.91734 | -118.83875 | 11978 ft | 346 kts | 271° |
| 2026-04-23 10:13 | 33.91790 | -118.86777 | 12344 ft | 347 kts | 273° |
| 2026-04-23 10:13 | 33.91881 | -118.89682 | 13117 ft | 347 kts | 273° |
| 2026-04-23 10:14 | 33.91972 | -118.92584 | 13883 ft | 348 kts | 273° |
| 2026-04-23 10:14 | 33.92060 | -118.95507 | 14586 ft | 350 kts | 272° |
| 2026-04-23 10:14 | 33.92152 | -118.98441 | 15267 ft | 351 kts | 273° |
| 2026-04-23 10:14 | 33.92503 | -119.01355 | 15915 ft | 354 kts | 284° |
| 2026-04-23 10:15 | 33.93479 | -119.04095 | 16580 ft | 359 kts | 297° |
| 2026-04-23 10:15 | 33.94782 | -119.06682 | 17213 ft | 363 kts | 299° |
| 2026-04-23 10:15 | 33.96136 | -119.09267 | 17848 ft | 367 kts | 299° |
| 2026-04-23 10:15 | 33.97503 | -119.11885 | 18488 ft | 370 kts | 298° |
| 2026-04-23 10:16 | 33.98873 | -119.14524 | 19066 ft | 373 kts | 298° |
| 2026-04-23 10:16 | 34.00297 | -119.17104 | 19655 ft | 378 kts | 303° |
| 2026-04-23 10:16 | 34.02092 | -119.19453 | 20284 ft | 385 kts | 314° |
| 2026-04-23 10:16 | 34.04224 | -119.21451 | 20947 ft | 390 kts | 319° |
| 2026-04-23 10:17 | 34.06447 | -119.23358 | 21524 ft | 394 kts | 319° |
| 2026-04-23 10:17 | 34.08695 | -119.25272 | 22094 ft | 397 kts | 319° |
| 2026-04-23 10:17 | 34.10958 | -119.27206 | 22672 ft | 400 kts | 319° |
| 2026-04-23 10:17 | 34.13232 | -119.29155 | 23218 ft | 403 kts | 319° |
| 2026-04-23 10:18 | 34.15520 | -119.31122 | 23756 ft | 406 kts | 319° |
| 2026-04-23 10:18 | 34.17833 | -119.33113 | 24297 ft | 409 kts | 319° |
| 2026-04-23 10:18 | 34.20160 | -119.35118 | 24811 ft | 412 kts | 319° |
| 2026-04-23 10:18 | 34.22504 | -119.37140 | 25300 ft | 416 kts | 319° |
| 2026-04-23 10:19 | 34.24879 | -119.39190 | 25793 ft | 419 kts | 319° |
| 2026-04-23 10:19 | 34.27258 | -119.41250 | 26281 ft | 422 kts | 319° |
| 2026-04-23 10:19 | 34.29655 | -119.43322 | 26672 ft | 426 kts | 318° |
| 2026-04-23 10:19 | 34.32071 | -119.45416 | 27091 ft | 428 kts | 318° |
| 2026-04-23 10:20 | 34.34493 | -119.47521 | 27460 ft | 431 kts | 317° |
| 2026-04-23 10:20 | 34.36773 | -119.49865 | 27922 ft | 428 kts | 309° |
| 2026-04-23 10:20 | 34.38698 | -119.52534 | 28362 ft | 425 kts | 301° |
| 2026-04-23 10:20 | 34.40261 | -119.55551 | 28818 ft | 422 kts | 293° |
| 2026-04-23 10:21 | 34.41407 | -119.58822 | 29238 ft | 421 kts | 285° |
| 2026-04-23 10:21 | 34.42109 | -119.62249 | 29641 ft | 420 kts | 277° |
| 2026-04-23 10:21 | 34.42361 | -119.65771 | 30060 ft | 420 kts | 269° |
| 2026-04-23 10:21 | 34.42159 | -119.69302 | 30465 ft | 421 kts | 262° |
| 2026-04-23 10:22 | 34.41500 | -119.72766 | 30878 ft | 423 kts | 253° |
| 2026-04-23 10:22 | 34.40471 | -119.76109 | 31279 ft | 424 kts | 251° |
| 2026-04-23 10:22 | 34.39559 | -119.79503 | 31738 ft | 422 kts | 257° |
| 2026-04-23 10:22 | 34.39052 | -119.82993 | 32161 ft | 421 kts | 263° |
| 2026-04-23 10:23 | 34.38775 | -119.86497 | 32680 ft | 417 kts | 264° |
| 2026-04-23 10:23 | 34.38530 | -119.89941 | 33227 ft | 412 kts | 264° |
| 2026-04-23 10:23 | 34.38288 | -119.93379 | 33841 ft | 406 kts | 264° |
| 2026-04-23 10:23 | 34.38048 | -119.96759 | 34426 ft | 400 kts | 264° |
| 2026-04-23 10:24 | 34.37808 | -120.00085 | 34951 ft | 395 kts | 264° |
| 2026-04-23 10:24 | 34.37568 | -120.03395 | 35344 ft | 393 kts | 264° |
| 2026-04-23 10:24 | 34.37327 | -120.06692 | 35642 ft | 393 kts | 264° |
| 2026-04-23 10:24 | 34.37085 | -120.09988 | 35996 ft | 391 kts | 264° |
| 2026-04-23 10:25 | 34.36844 | -120.13261 | 36355 ft | 389 kts | 264° |
| 2026-04-23 10:25 | 34.36604 | -120.16508 | 36694 ft | 386 kts | 263° |
| 2026-04-23 10:25 | 34.36368 | -120.19700 | 36975 ft | 385 kts | 263° |
| 2026-04-23 10:25 | 34.36128 | -120.22919 | 37331 ft | 382 kts | 263° |
| 2026-04-23 10:26 | 34.35891 | -120.26104 | 37737 ft | 377 kts | 263° |
| 2026-04-23 10:26 | 34.35656 | -120.29247 | 38108 ft | 373 kts | 264° |
| 2026-04-23 10:26 | 34.35422 | -120.32361 | 38416 ft | 370 kts | 264° |
| 2026-04-23 10:26 | 34.35190 | -120.35449 | 38675 ft | 368 kts | 263° |
| 2026-04-23 10:27 | 34.34957 | -120.38528 | 38906 ft | 367 kts | 263° |
| 2026-04-23 10:27 | 34.34723 | -120.41601 | 39118 ft | 366 kts | 263° |
| 2026-04-23 10:27 | 34.34367 | -120.44651 | 39221 ft | 367 kts | 259° |
| 2026-04-23 10:27 | 34.33732 | -120.47642 | 39278 ft | 369 kts | 253° |
| 2026-04-23 10:28 | 34.31694 | -120.53382 | 39507 ft | 373 kts | 248° |
| 2026-04-23 10:28 | 34.30567 | -120.56216 | 39616 ft | 374 kts | 248° |
| 2026-04-23 10:28 | 34.29437 | -120.59058 | 39676 ft | 376 kts | 248° |
| 2026-04-23 10:29 | 34.27173 | -120.64771 | 39905 ft | 377 kts | 248° |
| 2026-04-23 10:29 | 34.26039 | -120.67630 | 40035 ft | 377 kts | 247° |
| 2026-04-23 10:29 | 34.24937 | -120.70515 | 40099 ft | 378 kts | 250° |
| 2026-04-23 10:30 | 34.23285 | -120.76551 | 40139 ft | 378 kts | 255° |
| 2026-04-23 10:30 | 34.21900 | -120.82693 | 40137 ft | 379 kts | 256° |
| 2026-04-23 10:31 | 34.20559 | -120.88850 | 40142 ft | 379 kts | 255° |
| 2026-04-23 10:31 | 34.19207 | -120.94978 | 40146 ft | 380 kts | 255° |
| 2026-04-23 10:32 | 34.17835 | -121.01140 | 40137 ft | 380 kts | 255° |
| 2026-04-23 10:32 | 34.16454 | -121.07302 | 40137 ft | 380 kts | 255° |
| 2026-04-23 10:33 | 34.15069 | -121.13471 | 40138 ft | 381 kts | 255° |
| 2026-04-23 10:33 | 34.13917 | -121.18603 | 40136 ft | 381 kts | 255° |
| 2026-04-23 10:34 | 34.12530 | -121.24782 | 40138 ft | 380 kts | 255° |
| 2026-04-23 10:34 | 34.11139 | -121.30944 | 40137 ft | 380 kts | 255° |
| 2026-04-23 10:35 | 34.09741 | -121.37107 | 40138 ft | 380 kts | 255° |
| 2026-04-23 10:35 | 34.08345 | -121.43255 | 40137 ft | 380 kts | 255° |
| 2026-04-23 10:36 | 34.06948 | -121.49402 | 40137 ft | 379 kts | 255° |
| 2026-04-23 10:36 | 34.05552 | -121.55503 | 40138 ft | 380 kts | 255° |
| 2026-04-23 10:37 | 34.04152 | -121.61635 | 40138 ft | 379 kts | 254° |
| 2026-04-23 10:37 | 34.02748 | -121.67761 | 40138 ft | 379 kts | 254° |
| 2026-04-23 10:38 | 34.01340 | -121.73889 | 40137 ft | 379 kts | 254° |
| 2026-04-23 10:38 | 33.99929 | -121.80007 | 40137 ft | 378 kts | 254° |
| 2026-04-23 10:39 | 33.98514 | -121.86115 | 40138 ft | 379 kts | 254° |
| 2026-04-23 10:39 | 33.97104 | -121.92196 | 40137 ft | 377 kts | 254° |
| 2026-04-23 10:40 | 33.95694 | -121.98296 | 40137 ft | 378 kts | 254° |
| 2026-04-23 10:40 | 33.94277 | -122.04398 | 40137 ft | 378 kts | 254° |
| 2026-04-23 10:41 | 33.92853 | -122.10502 | 40137 ft | 378 kts | 254° |
| 2026-04-23 10:41 | 33.91423 | -122.16601 | 40137 ft | 379 kts | 254° |
| 2026-04-23 10:42 | 33.89989 | -122.22691 | 40137 ft | 378 kts | 254° |
| 2026-04-23 10:42 | 33.88560 | -122.28776 | 40138 ft | 378 kts | 254° |
| 2026-04-23 10:43 | 33.87138 | -122.34838 | 40137 ft | 378 kts | 254° |
| 2026-04-23 10:43 | 33.85703 | -122.40927 | 40137 ft | 378 kts | 254° |
| 2026-04-23 10:44 | 33.84263 | -122.47014 | 40137 ft | 378 kts | 253° |
| 2026-04-23 10:44 | 33.82818 | -122.53085 | 40138 ft | 378 kts | 253° |
| 2026-04-23 10:45 | 33.81371 | -122.59168 | 40138 ft | 378 kts | 253° |
| 2026-04-23 10:45 | 33.79922 | -122.65254 | 40137 ft | 378 kts | 253° |
| 2026-04-23 10:46 | 33.78470 | -122.71319 | 40138 ft | 378 kts | 253° |
| 2026-04-23 10:46 | 33.77015 | -122.77393 | 40137 ft | 378 kts | 253° |
| 2026-04-23 10:47 | 33.75557 | -122.83475 | 40138 ft | 378 kts | 253° |
| 2026-04-23 10:47 | 33.74093 | -122.89553 | 40137 ft | 379 kts | 253° |
| 2026-04-23 10:48 | 33.72624 | -122.95627 | 40135 ft | 378 kts | 252° |
| 2026-04-23 10:48 | 33.71151 | -123.01695 | 40139 ft | 379 kts | 252° |
| 2026-04-23 10:49 | 33.69678 | -123.07775 | 40139 ft | 379 kts | 252° |
| 2026-04-23 10:49 | 33.68214 | -123.13793 | 40137 ft | 377 kts | 252° |
| 2026-04-23 10:50 | 33.66745 | -123.19873 | 40137 ft | 379 kts | 252° |
| 2026-04-23 10:50 | 33.65267 | -123.25938 | 40139 ft | 379 kts | 252° |
| 2026-04-23 10:51 | 33.63770 | -123.32020 | 40136 ft | 381 kts | 252° |
| 2026-04-23 10:51 | 33.62270 | -123.38123 | 40136 ft | 380 kts | 252° |
| 2026-04-23 10:52 | 33.60786 | -123.44206 | 40140 ft | 381 kts | 252° |
| 2026-04-23 10:52 | 33.59282 | -123.50313 | 40138 ft | 382 kts | 252° |
| 2026-04-23 10:53 | 33.57776 | -123.56394 | 40140 ft | 379 kts | 252° |
| 2026-04-23 10:53 | 33.56273 | -123.62466 | 40135 ft | 381 kts | 252° |
| 2026-04-23 10:54 | 33.54764 | -123.68558 | 40137 ft | 381 kts | 252° |
| 2026-04-23 10:54 | 33.53259 | -123.74606 | 40139 ft | 380 kts | 251° |
| 2026-04-23 10:55 | 33.51737 | -123.80690 | 40135 ft | 382 kts | 252° |
| 2026-04-23 10:55 | 33.50214 | -123.86796 | 40138 ft | 382 kts | 251° |
| 2026-04-23 10:56 | 33.48689 | -123.92882 | 40139 ft | 381 kts | 251° |
| 2026-04-23 10:56 | 33.47152 | -123.98959 | 40139 ft | 381 kts | 251° |
| 2026-04-23 10:57 | 33.45625 | -124.05046 | 40137 ft | 383 kts | 251° |
| 2026-04-23 10:57 | 33.44086 | -124.11167 | 40136 ft | 384 kts | 251° |
| 2026-04-23 10:58 | 33.42541 | -124.17291 | 40140 ft | 385 kts | 251° |
| 2026-04-23 10:58 | 33.40994 | -124.23414 | 40138 ft | 383 kts | 251° |
| 2026-04-23 10:59 | 33.39437 | -124.29546 | 40137 ft | 385 kts | 251° |
| 2026-04-23 10:59 | 33.37873 | -124.35682 | 40137 ft | 385 kts | 251° |
| 2026-04-23 11:00 | 33.36302 | -124.41809 | 40138 ft | 384 kts | 251° |
| 2026-04-23 11:00 | 33.34731 | -124.47909 | 40130 ft | 384 kts | 251° |
| 2026-04-23 11:01 | 33.33162 | -124.54045 | 40124 ft | 386 kts | 251° |
| 2026-04-23 11:01 | 33.31600 | -124.60179 | 40133 ft | 385 kts | 250° |
| 2026-04-23 11:02 | 33.30033 | -124.66263 | 40125 ft | 385 kts | 251° |
| 2026-04-23 11:02 | 33.28452 | -124.72381 | 40164 ft | 386 kts | 250° |
| 2026-04-23 11:03 | 33.26862 | -124.78520 | 40165 ft | 387 kts | 250° |
| 2026-04-23 11:03 | 33.25269 | -124.84671 | 40165 ft | 388 kts | 250° |
| 2026-04-23 11:04 | 33.23668 | -124.90837 | 40166 ft | 388 kts | 250° |
| 2026-04-23 11:04 | 33.22061 | -124.96994 | 40165 ft | 388 kts | 250° |
| 2026-04-23 11:05 | 33.20455 | -125.03149 | 40164 ft | 388 kts | 250° |
| 2026-04-23 11:05 | 33.18854 | -125.09270 | 40164 ft | 389 kts | 250° |
| 2026-04-23 11:06 | 33.16427 | -125.18522 | 40165 ft | 389 kts | 250° |
| 2026-04-23 11:07 | 33.14806 | -125.24692 | 40166 ft | 390 kts | 250° |
| 2026-04-23 11:07 | 33.13178 | -125.30872 | 40164 ft | 390 kts | 250° |
| 2026-04-23 11:08 | 33.11546 | -125.37043 | 40165 ft | 391 kts | 250° |
| 2026-04-23 11:08 | 33.09909 | -125.43230 | 40165 ft | 391 kts | 250° |
| 2026-04-23 11:09 | 33.08270 | -125.49398 | 40165 ft | 391 kts | 250° |
| 2026-04-23 11:09 | 33.06636 | -125.55543 | 40165 ft | 391 kts | 250° |
| 2026-04-23 11:10 | 33.04989 | -125.61724 | 40165 ft | 391 kts | 250° |
| 2026-04-23 11:10 | 33.03341 | -125.67895 | 40166 ft | 390 kts | 250° |
| 2026-04-23 11:11 | 33.01688 | -125.74067 | 40165 ft | 390 kts | 250° |
| 2026-04-23 11:11 | 33.00035 | -125.80235 | 40165 ft | 391 kts | 250° |
| 2026-04-23 11:12 | 32.98374 | -125.86407 | 40165 ft | 391 kts | 249° |
| 2026-04-23 11:12 | 32.96712 | -125.92569 | 40165 ft | 391 kts | 249° |
| 2026-04-23 11:13 | 32.95047 | -125.98736 | 40165 ft | 391 kts | 249° |
| 2026-04-23 11:13 | 32.93391 | -126.04861 | 40165 ft | 392 kts | 249° |
| 2026-04-23 11:14 | 32.91699 | -126.11083 | 40164 ft | 397 kts | 249° |
| 2026-04-23 11:14 | 32.89995 | -126.17345 | 40165 ft | 398 kts | 249° |
| 2026-04-23 11:15 | 32.88287 | -126.23613 | 40174 ft | 397 kts | 249° |
| 2026-04-23 11:15 | 32.86581 | -126.29864 | 40181 ft | 398 kts | 249° |
| 2026-04-23 11:16 | 32.84870 | -126.36115 | 40186 ft | 398 kts | 249° |
| 2026-04-23 11:16 | 32.83150 | -126.42388 | 40185 ft | 399 kts | 249° |
| 2026-04-23 11:17 | 32.81428 | -126.48652 | 40181 ft | 399 kts | 249° |
| 2026-04-23 11:17 | 32.79700 | -126.54919 | 40190 ft | 399 kts | 249° |
| 2026-04-23 11:18 | 32.77968 | -126.61197 | 40180 ft | 400 kts | 249° |
| 2026-04-23 11:18 | 32.76237 | -126.67455 | 40185 ft | 401 kts | 249° |
| 2026-04-23 11:19 | 32.74492 | -126.73757 | 40188 ft | 402 kts | 249° |
| 2026-04-23 11:19 | 32.73024 | -126.79042 | 40180 ft | 403 kts | 249° |
| 2026-04-23 11:20 | 32.71259 | -126.85368 | 40192 ft | 404 kts | 249° |
| 2026-04-23 11:20 | 32.69488 | -126.91709 | 40181 ft | 405 kts | 249° |
| 2026-04-23 11:21 | 32.67710 | -126.98060 | 40180 ft | 406 kts | 249° |
| 2026-04-23 11:21 | 32.65924 | -127.04430 | 40181 ft | 407 kts | 249° |
| 2026-04-23 11:22 | 32.64139 | -127.10783 | 40180 ft | 409 kts | 249° |
| 2026-04-23 11:22 | 32.62336 | -127.17187 | 40184 ft | 410 kts | 249° |
| 2026-04-23 11:23 | 32.60526 | -127.23603 | 40181 ft | 411 kts | 249° |
| 2026-04-23 11:23 | 32.58701 | -127.30055 | 40181 ft | 412 kts | 249° |
| 2026-04-23 11:24 | 32.56868 | -127.36523 | 40181 ft | 414 kts | 249° |
| 2026-04-23 11:24 | 32.55030 | -127.42994 | 40181 ft | 415 kts | 249° |
| 2026-04-23 11:25 | 32.53181 | -127.49489 | 40181 ft | 416 kts | 249° |
| 2026-04-23 11:25 | 32.51338 | -127.55948 | 40177 ft | 417 kts | 249° |
| 2026-04-23 11:26 | 32.49475 | -127.62463 | 40164 ft | 418 kts | 249° |
| 2026-04-23 11:26 | 32.47606 | -127.68986 | 40165 ft | 419 kts | 249° |
| 2026-04-23 11:27 | 32.45728 | -127.75525 | 40165 ft | 420 kts | 249° |
| 2026-04-23 11:27 | 32.43841 | -127.82081 | 40165 ft | 420 kts | 249° |
| 2026-04-23 11:28 | 32.41951 | -127.88632 | 40165 ft | 421 kts | 249° |
| 2026-04-23 11:28 | 32.40055 | -127.95187 | 40165 ft | 421 kts | 249° |
| 2026-04-23 11:29 | 32.38169 | -128.01698 | 40164 ft | 421 kts | 249° |
| 2026-04-23 11:29 | 32.36263 | -128.08260 | 40165 ft | 423 kts | 249° |
| 2026-04-23 11:30 | 32.34345 | -128.14850 | 40165 ft | 424 kts | 249° |
| 2026-04-23 11:30 | 32.32422 | -128.21442 | 40174 ft | 424 kts | 249° |
| 2026-04-23 11:31 | 32.30499 | -128.28022 | 40174 ft | 423 kts | 249° |
| 2026-04-23 11:31 | 32.28570 | -128.34604 | 40174 ft | 423 kts | 249° |
| 2026-04-23 11:32 | 32.26636 | -128.41191 | 40174 ft | 424 kts | 249° |
| 2026-04-23 11:32 | 32.24710 | -128.47735 | 40174 ft | 425 kts | 249° |
| 2026-04-23 11:33 | 32.22767 | -128.54324 | 40174 ft | 425 kts | 249° |
| 2026-04-23 11:33 | 32.20811 | -128.60941 | 40174 ft | 426 kts | 249° |
| 2026-04-23 11:34 | 32.18856 | -128.67543 | 40174 ft | 427 kts | 249° |
| 2026-04-23 11:34 | 32.16893 | -128.74156 | 40174 ft | 427 kts | 249° |
| 2026-04-23 11:35 | 32.14921 | -128.80784 | 40174 ft | 428 kts | 249° |
| 2026-04-23 11:35 | 32.12941 | -128.87424 | 40174 ft | 429 kts | 249° |
| 2026-04-23 11:36 | 32.10954 | -128.94075 | 40174 ft | 430 kts | 249° |
| 2026-04-23 11:36 | 32.08964 | -129.00720 | 40174 ft | 431 kts | 249° |
| 2026-04-23 11:37 | 32.06962 | -129.07390 | 40174 ft | 432 kts | 250° |
| 2026-04-23 11:37 | 32.04964 | -129.14031 | 40174 ft | 433 kts | 250° |
| 2026-04-23 11:38 | 32.02944 | -129.20736 | 40174 ft | 434 kts | 250° |
| 2026-04-23 11:38 | 32.00919 | -129.27438 | 40174 ft | 434 kts | 250° |
| 2026-04-23 11:39 | 31.98885 | -129.34157 | 40173 ft | 435 kts | 249° |
| 2026-04-23 11:39 | 31.96850 | -129.40866 | 40174 ft | 435 kts | 249° |
| 2026-04-23 11:40 | 31.94807 | -129.47584 | 40174 ft | 436 kts | 250° |
| 2026-04-23 11:40 | 31.92757 | -129.54309 | 40174 ft | 436 kts | 249° |
| 2026-04-23 11:41 | 31.90715 | -129.60998 | 40180 ft | 437 kts | 250° |
| 2026-04-23 11:41 | 31.88651 | -129.67741 | 40180 ft | 438 kts | 250° |
| 2026-04-23 11:42 | 31.86578 | -129.74502 | 40186 ft | 439 kts | 250° |
| 2026-04-23 11:42 | 31.84500 | -129.81261 | 40186 ft | 440 kts | 250° |
| 2026-04-23 11:43 | 31.82414 | -129.88031 | 40185 ft | 440 kts | 250° |
| 2026-04-23 11:43 | 31.80326 | -129.94796 | 40181 ft | 440 kts | 250° |
| 2026-04-23 11:44 | 31.78234 | -130.01558 | 40180 ft | 440 kts | 249° |
| 2026-04-23 11:44 | 31.76135 | -130.08326 | 40180 ft | 441 kts | 249° |
| 2026-04-23 11:45 | 31.74045 | -130.15052 | 40192 ft | 441 kts | 249° |
| 2026-04-23 11:45 | 31.71937 | -130.21824 | 40188 ft | 441 kts | 249° |
| 2026-04-23 11:46 | 31.69828 | -130.28581 | 40189 ft | 440 kts | 249° |
| 2026-04-23 11:46 | 31.67717 | -130.35332 | 40183 ft | 440 kts | 249° |
| 2026-04-23 11:47 | 31.65601 | -130.42084 | 40181 ft | 440 kts | 249° |
| 2026-04-23 11:47 | 31.63484 | -130.48824 | 40181 ft | 440 kts | 249° |
| 2026-04-23 11:48 | 31.61362 | -130.55565 | 40187 ft | 440 kts | 249° |
| 2026-04-23 11:48 | 31.59251 | -130.62259 | 40188 ft | 439 kts | 249° |
| 2026-04-23 11:49 | 31.57129 | -130.68974 | 40185 ft | 439 kts | 249° |
| 2026-04-23 11:49 | 31.55001 | -130.75692 | 40184 ft | 439 kts | 249° |
| 2026-04-23 11:50 | 31.52872 | -130.82398 | 40181 ft | 438 kts | 249° |
| 2026-04-23 11:50 | 31.50743 | -130.89092 | 40181 ft | 438 kts | 249° |
| 2026-04-23 11:51 | 31.48612 | -130.95779 | 40181 ft | 438 kts | 249° |
| 2026-04-23 11:51 | 31.46477 | -131.02464 | 40181 ft | 438 kts | 249° |
| 2026-04-23 11:52 | 31.44347 | -131.09117 | 40188 ft | 438 kts | 249° |
| 2026-04-23 11:52 | 31.42202 | -131.15805 | 40187 ft | 438 kts | 249° |
| 2026-04-23 11:53 | 31.40055 | -131.22486 | 40181 ft | 438 kts | 249° |
| 2026-04-23 11:53 | 31.37904 | -131.29164 | 40180 ft | 438 kts | 249° |
| 2026-04-23 11:54 | 31.35754 | -131.35827 | 40186 ft | 437 kts | 248° |
| 2026-04-23 11:54 | 31.33600 | -131.42487 | 40189 ft | 437 kts | 248° |
| 2026-04-23 11:55 | 31.31446 | -131.49134 | 40185 ft | 437 kts | 248° |